Time;durP1;ratioP1;P1;durP2;ratioP2;P2;SDS_P1;SDS_P2;PMS_P1;PMS_P2;Temp;Humidity;BMP_temperature;BMP_pressure;BME280_temperature;BME280_humidity;BME280_pressure;Samples;Min_cycle;Max_cycle;Signal;HPM_P1;HPM_P2
2021/11/06 00:02:03;;;;;;;0.77;0.70;;;;;;;19.36;51.65;101608.03;5073249;28;20244;-68
2021/11/06 00:04:30;;;;;;;1.50;0.98;;;;;;;19.36;51.51;101610.69;5075215;28;20063;-67
2021/11/06 00:06:58;;;;;;;2.15;1.10;;;;;;;19.35;51.56;101612.53;5079580;28;20048;-67
2021/11/06 00:09:25;;;;;;;1.30;0.90;;;;;;;19.35;51.63;101609.84;5070445;28;20060;-66
2021/11/06 00:11:53;;;;;;;1.10;0.88;;;;;;;19.35;51.59;101607.19;5073489;28;20403;-67
2021/11/06 00:14:20;;;;;;;1.30;0.93;;;;;;;19.36;51.54;101608.91;5077787;28;20047;-68
2021/11/06 00:16:47;;;;;;;1.48;1.10;;;;;;;19.36;51.40;101616.91;5076948;28;20049;-66
2021/11/06 00:19:14;;;;;;;2.88;1.08;;;;;;;19.36;51.55;101608.91;5072688;28;20500;-67
2021/11/06 00:21:41;;;;;;;1.27;1.08;;;;;;;19.37;51.56;101612.41;5083046;28;20048;-67
2021/11/06 00:24:08;;;;;;;1.13;0.80;;;;;;;19.37;51.48;101615.09;5078196;28;20050;-67
2021/11/06 00:26:35;;;;;;;1.02;0.93;;;;;;;19.37;51.60;101607.91;5082448;28;20043;-67
2021/11/06 00:29:04;;;;;;;0.73;0.70;;;;;;;19.36;51.65;101611.56;5070496;28;20136;-67
2021/11/06 00:31:31;;;;;;;0.80;0.80;;;;;;;19.37;51.56;101615.94;5084992;28;20044;-68
2021/11/06 00:33:58;;;;;;;1.35;0.88;;;;;;;19.37;51.67;101612.41;5071835;28;20055;-68
2021/11/06 00:36:25;;;;;;;1.10;0.80;;;;;;;19.37;51.69;101620.44;5074125;28;20451;-67
2021/11/06 00:38:53;;;;;;;1.02;0.90;;;;;;;19.37;51.63;101618.59;5085242;28;20058;-67
2021/11/06 00:41:20;;;;;;;1.10;0.70;;;;;;;19.37;51.55;101615.94;5069016;28;20056;-66
2021/11/06 00:43:47;;;;;;;0.80;0.80;;;;;;;19.38;51.89;101619.44;5080896;28;20097;-66
2021/11/06 00:46:14;;;;;;;0.98;0.77;;;;;;;19.38;51.56;101619.44;5081688;28;20032;-67
2021/11/06 00:48:41;;;;;;;1.00;0.80;;;;;;;19.38;51.40;101614.09;5077500;28;20035;-67
2021/11/06 00:51:09;;;;;;;0.80;0.68;;;;;;;19.40;51.38;101614.81;5079504;28;20433;-67
2021/11/06 00:53:36;;;;;;;1.27;0.82;;;;;;;19.39;51.40;101621.13;5081471;28;20059;-68
2021/11/06 00:56:03;;;;;;;1.58;0.70;;;;;;;19.38;51.67;101614.94;5060251;28;20045;-68
2021/11/06 00:58:31;;;;;;;1.17;0.80;;;;;;;19.39;51.53;101615.81;5076500;28;20076;-67
2021/11/06 01:00:58;;;;;;;0.90;0.68;;;;;;;19.40;51.50;101630.84;5077768;28;20397;-67
2021/11/06 01:03:26;;;;;;;1.05;0.90;;;;;;;19.39;51.55;101635.34;5034747;28;20047;-67
2021/11/06 01:05:54;;;;;;;1.52;0.80;;;;;;;19.39;51.53;101632.66;5069238;28;20075;-66
2021/11/06 01:08:21;;;;;;;0.70;0.70;;;;;;;19.39;51.54;101634.50;5080259;28;20484;-68
2021/11/06 01:10:48;;;;;;;1.77;1.38;;;;;;;19.39;51.36;101635.34;5067837;28;20060;-68
2021/11/06 01:13:17;;;;;;;1.52;0.80;;;;;;;19.39;51.37;101630.00;5083253;28;20052;-67
2021/11/06 01:15:44;;;;;;;0.82;0.70;;;;;;;19.40;51.48;101628.16;5072437;28;20049;-67
2021/11/06 01:18:11;;;;;;;0.95;0.80;;;;;;;19.40;51.33;101629.00;5071515;28;20052;-67
2021/11/06 01:20:39;;;;;;;0.88;0.75;;;;;;;19.40;51.38;101620.16;5070155;28;20049;-67
2021/11/06 01:23:06;;;;;;;1.00;0.90;;;;;;;19.41;51.15;101627.22;5083566;28;20099;-67
2021/11/06 01:25:33;;;;;;;2.85;0.93;;;;;;;19.41;51.40;101633.41;5070177;28;20051;-68
2021/11/06 01:28:00;;;;;;;0.85;0.73;;;;;;;19.42;51.51;101634.25;5069578;28;20562;-67
2021/11/06 01:30:27;;;;;;;1.00;0.70;;;;;;;19.42;51.52;101629.75;5073062;28;20459;-67
2021/11/06 01:32:55;;;;;;;1.95;1.15;;;;;;;19.42;51.38;101631.59;5081508;28;20062;-68
2021/11/06 01:35:22;;;;;;;1.27;1.00;;;;;;;19.42;51.47;101639.59;5068357;28;20054;-68
2021/11/06 01:37:49;;;;;;;1.10;0.90;;;;;;;19.42;51.49;101640.44;5075680;28;20056;-68
2021/11/06 01:40:19;;;;;;;1.35;0.75;;;;;;;19.42;51.57;101639.59;5080230;28;20151;-67
2021/11/06 01:42:46;;;;;;;0.80;0.80;;;;;;;19.42;51.29;101634.25;5078692;28;20063;-68
2021/11/06 01:45:17;;;;;;;1.10;0.70;;;;;;;19.42;51.59;101642.25;5075117;28;20059;-67
2021/11/06 01:47:44;;;;;;;0.98;0.77;;;;;;;19.43;51.38;101638.63;5081071;28;20052;-68
2021/11/06 01:50:12;;;;;;;1.90;0.90;;;;;;;19.41;51.39;101644.09;5076307;28;20494;-68
2021/11/06 01:52:40;;;;;;;1.38;0.85;;;;;;;19.43;51.37;101641.28;5068579;28;20044;-69
2021/11/06 01:55:07;;;;;;;1.15;0.88;;;;;;;19.43;51.50;101642.13;5072688;28;20052;-68
2021/11/06 01:57:35;;;;;;;1.65;1.08;;;;;;;19.45;51.37;101642.88;5082527;28;20507;-68
2021/11/06 02:00:14;;;;;;;1.17;0.80;;;;;;;19.43;51.37;101642.13;5082289;28;20058;-68
2021/11/06 02:02:44;;;;;;;1.25;0.80;;;;;;;19.43;51.46;101636.78;5077228;28;20554;-69
2021/11/06 02:05:12;;;;;;;1.17;0.90;;;;;;;19.44;51.33;101640.31;5081356;28;20063;-68
2021/11/06 02:07:40;;;;;;;1.92;0.80;;;;;;;19.44;51.28;101632.28;5070268;28;20056;-68
2021/11/06 02:10:10;;;;;;;1.10;0.82;;;;;;;19.43;51.49;101635.94;5078080;28;20416;-68
2021/11/06 02:12:38;;;;;;;1.52;1.00;;;;;;;19.44;51.33;101629.63;5070213;28;20055;-68
2021/11/06 02:15:07;;;;;;;1.67;0.85;;;;;;;19.44;51.51;101641.16;5072935;28;20056;-67
2021/11/06 02:17:35;;;;;;;0.85;0.75;;;;;;;19.44;51.51;101637.63;5064578;28;20070;-68
2021/11/06 02:20:04;;;;;;;1.50;0.93;;;;;;;19.44;51.64;101627.81;5077238;28;20113;-68
2021/11/06 02:22:32;;;;;;;1.25;0.82;;;;;;;19.44;51.41;101633.13;5080389;28;20058;-68
2021/11/06 02:24:59;;;;;;;1.52;0.80;;;;;;;19.45;51.36;101639.31;5074621;28;20515;-68
2021/11/06 02:27:26;;;;;;;0.82;0.80;;;;;;;19.45;51.22;101639.31;5069064;28;20037;-68
2021/11/06 02:29:54;;;;;;;0.65;0.65;;;;;;;19.44;51.47;101635.81;5069079;28;20052;-67
2021/11/06 02:32:21;;;;;;;1.83;0.73;;;;;;;19.44;51.35;101635.81;5076411;28;20056;-67
2021/11/06 02:34:48;;;;;;;1.50;1.02;;;;;;;19.44;51.34;101630.47;5059763;28;20062;-68
2021/11/06 02:37:15;;;;;;;1.05;0.80;;;;;;;19.44;51.13;101621.63;5064257;28;20080;-67
2021/11/06 02:40:08;;;;;;;0.73;0.63;;;;;;;19.44;51.47;101633.13;5081622;28;20408;-67
2021/11/06 02:42:36;;;;;;;1.23;0.82;;;;;;;19.45;51.29;101629.53;5082659;28;20507;-68
2021/11/06 02:45:04;;;;;;;0.80;0.70;;;;;;;19.46;51.49;101635.72;5069546;28;20409;-68
2021/11/06 02:47:31;;;;;;;0.73;0.70;;;;;;;19.46;51.27;101641.91;5082432;28;20131;-68
2021/11/06 02:49:59;;;;;;;2.47;0.90;;;;;;;19.47;51.34;101638.25;5054757;28;20052;-68
2021/11/06 02:52:26;;;;;;;1.15;0.90;;;;;;;19.47;51.39;101638.25;5082402;28;20083;-67
2021/11/06 02:54:54;;;;;;;0.70;0.70;;;;;;;19.47;51.42;101648.09;5062730;28;20127;-67
2021/11/06 02:57:21;;;;;;;1.33;0.73;;;;;;;19.47;51.51;101640.06;5067803;28;20115;-68
2021/11/06 02:59:50;;;;;;;1.83;1.08;;;;;;;19.46;51.41;101639.22;5079819;28;20044;-67
2021/11/06 03:02:17;;;;;;;0.85;0.63;;;;;;;19.47;51.33;101640.06;5073368;28;20063;-68
2021/11/06 03:04:44;;;;;;;0.85;0.70;;;;;;;19.47;50.89;101646.25;5076872;28;20219;-66
2021/11/06 03:07:11;;;;;;;0.95;0.80;;;;;;;19.48;51.40;101649.78;5077853;28;20054;-67
2021/11/06 03:09:39;;;;;;;0.68;0.68;;;;;;;19.48;51.39;101647.09;5070045;28;20050;-67
2021/11/06 03:12:08;;;;;;;1.10;0.60;;;;;;;19.47;51.37;101648.94;5076158;28;20062;-66
2021/11/06 03:14:37;;;;;;;1.08;0.80;;;;;;;19.48;51.42;101644.44;5072318;28;20060;-67
2021/11/06 03:17:05;;;;;;;0.73;0.68;;;;;;;19.48;51.30;101644.44;5069819;28;20067;-67
2021/11/06 03:19:32;;;;;;;0.88;0.75;;;;;;;19.47;51.33;101642.75;5070416;28;20131;-67
2021/11/06 03:21:59;;;;;;;1.25;0.80;;;;;;;19.49;51.25;101659.47;5078640;28;20546;-67
2021/11/06 03:24:27;;;;;;;0.93;0.73;;;;;;;19.48;51.27;101653.28;5075843;28;20530;-67
2021/11/06 03:26:54;;;;;;;0.80;0.80;;;;;;;19.49;51.25;101651.47;5074201;28;20044;-66
2021/11/06 03:29:21;;;;;;;1.13;0.77;;;;;;;19.49;51.39;101656.81;5066780;28;20152;-67
2021/11/06 03:31:48;;;;;;;1.17;0.80;;;;;;;19.48;51.31;101663.97;5073322;28;20037;-67
2021/11/06 03:34:16;;;;;;;1.88;0.77;;;;;;;19.48;51.39;101650.63;5067413;28;20052;-66
2021/11/06 03:36:43;;;;;;;1.10;0.70;;;;;;;19.49;51.12;101663.00;5073974;28;20562;-67
2021/11/06 03:39:10;;;;;;;0.98;0.68;;;;;;;19.49;51.38;101668.34;5075297;28;20434;-67
2021/11/06 03:41:39;;;;;;;1.27;0.80;;;;;;;19.51;51.28;101659.38;5065453;28;20064;-66
2021/11/06 03:44:06;;;;;;;0.80;0.60;;;;;;;19.51;51.31;101664.72;5072762;28;20104;-67
2021/11/06 03:46:34;;;;;;;1.42;1.02;;;;;;;19.50;51.28;101661.19;5079085;28;20054;-66
2021/11/06 03:49:03;;;;;;;0.77;0.70;;;;;;;19.49;51.29;101663.00;5075586;28;20058;-67
2021/11/06 03:51:30;;;;;;;1.38;0.90;;;;;;;19.50;51.39;101655.84;5072340;28;20052;-67
2021/11/06 03:53:58;;;;;;;0.95;0.70;;;;;;;19.50;51.29;101669.22;5076520;28;20044;-67
2021/11/06 03:56:26;;;;;;;1.58;0.88;;;;;;;19.51;51.50;101670.91;5070539;28;20122;-67
2021/11/06 03:58:53;;;;;;;0.95;0.70;;;;;;;19.51;51.43;101665.56;5073478;28;20135;-68
2021/11/06 04:01:21;;;;;;;0.98;0.85;;;;;;;19.51;51.38;101675.41;5054975;28;20064;-67
2021/11/06 04:03:48;;;;;;;0.85;0.70;;;;;;;19.51;51.46;101675.41;5059218;28;20044;-68
2021/11/06 04:06:16;;;;;;;1.30;0.70;;;;;;;19.51;51.37;101670.91;5071899;28;20370;-67
2021/11/06 04:08:43;;;;;;;0.70;0.70;;;;;;;19.51;51.36;101673.56;5078176;28;20504;-67
2021/11/06 04:11:10;;;;;;;0.90;0.70;;;;;;;19.52;51.36;101677.09;5063902;28;20056;-67
2021/11/06 04:13:38;;;;;;;1.20;1.00;;;;;;;19.51;50.87;101672.72;5073308;28;20107;-67
2021/11/06 04:16:05;;;;;;;0.73;0.68;;;;;;;19.53;51.38;101670.78;5065462;28;20052;-68
2021/11/06 04:18:32;;;;;;;0.70;0.70;;;;;;;19.52;51.32;101672.59;5078670;28;20864;-67
2021/11/06 04:20:59;;;;;;;1.00;0.90;;;;;;;19.51;51.34;101676.25;5073275;28;20053;-67
2021/11/06 04:23:26;;;;;;;1.10;0.75;;;;;;;19.52;51.25;101679.75;5080212;28;20201;-67
2021/11/06 04:25:55;;;;;;;0.80;0.70;;;;;;;19.52;51.29;101683.28;5063357;28;20057;-67
2021/11/06 04:28:23;;;;;;;1.00;0.70;;;;;;;19.53;51.29;101679.63;5071234;28;20562;-67
2021/11/06 04:30:50;;;;;;;0.77;0.60;;;;;;;19.53;51.24;101679.63;5078664;28;20123;-67
2021/11/06 04:33:17;;;;;;;1.30;0.88;;;;;;;19.53;51.47;101684.13;5074601;28;20062;-66
2021/11/06 04:35:44;;;;;;;0.90;0.77;;;;;;;19.53;51.22;101686.78;5062447;28;20094;-67
2021/11/06 04:38:12;;;;;;;1.23;0.80;;;;;;;19.52;51.35;101680.59;5075085;28;20044;-68
2021/11/06 04:40:39;;;;;;;1.00;0.70;;;;;;;19.53;51.21;101684.13;5073032;28;20121;-67
2021/11/06 04:43:06;;;;;;;0.98;0.88;;;;;;;19.54;51.30;101691.16;5073086;28;20547;-66
2021/11/06 04:45:33;;;;;;;2.28;0.90;;;;;;;19.52;51.12;101685.94;5077813;28;20048;-67
2021/11/06 04:48:00;;;;;;;0.73;0.73;;;;;;;19.53;50.88;101676.97;5072305;28;20041;-67
2021/11/06 04:50:27;;;;;;;0.60;0.60;;;;;;;19.54;51.27;101672.47;5059761;28;20050;-66
2021/11/06 04:52:55;;;;;;;0.73;0.70;;;;;;;19.54;51.39;101669.78;5071856;28;20416;-67
2021/11/06 04:55:22;;;;;;;1.00;0.70;;;;;;;19.54;51.36;101677.81;5065714;28;20045;-68
2021/11/06 04:57:49;;;;;;;0.90;0.63;;;;;;;19.53;51.38;101674.28;5063505;28;20128;-67
2021/11/06 05:00:17;;;;;;;1.05;0.68;;;;;;;19.54;51.17;101669.78;5079455;28;20052;-67
2021/11/06 05:02:44;;;;;;;0.77;0.60;;;;;;;19.54;51.35;101667.97;5067929;28;20460;-66
2021/11/06 05:05:12;;;;;;;0.55;0.55;;;;;;;19.55;51.26;101666.16;5078499;28;20052;-67
2021/11/06 05:07:39;;;;;;;0.75;0.60;;;;;;;19.54;51.23;101664.44;5071550;28;20047;-67
2021/11/06 05:10:07;;;;;;;0.80;0.70;;;;;;;19.54;51.15;101675.13;5068822;28;20053;-67
2021/11/06 05:12:35;;;;;;;0.60;0.60;;;;;;;19.55;51.26;101660.84;5065681;28;20622;-68
2021/11/06 05:15:04;;;;;;;1.08;0.80;;;;;;;19.54;51.21;101659.09;5066435;28;20056;-67
2021/11/06 05:17:32;;;;;;;1.15;0.63;;;;;;;19.54;51.15;101665.28;5071904;28;20576;-67
2021/11/06 05:19:59;;;;;;;1.58;1.02;;;;;;;19.55;51.31;101658.16;5073480;28;20071;-67
2021/11/06 05:22:26;;;;;;;1.23;1.00;;;;;;;19.55;51.12;101664.34;5077872;28;20661;-68
2021/11/06 05:24:54;;;;;;;0.82;0.75;;;;;;;19.55;51.40;101664.34;5071720;28;20055;-67
2021/11/06 05:27:21;;;;;;;0.98;0.75;;;;;;;19.55;51.30;101671.50;5073582;28;20051;-67
2021/11/06 05:29:53;;;;;;;1.15;0.77;;;;;;;19.55;51.34;101664.34;5067291;28;20052;-67
2021/11/06 05:32:20;;;;;;;0.93;0.63;;;;;;;19.56;51.32;101659.84;5074361;28;20061;-67
2021/11/06 05:34:47;;;;;;;0.75;0.75;;;;;;;19.56;51.36;101667.88;5073650;28;20055;-68
2021/11/06 05:37:15;;;;;;;0.90;0.80;;;;;;;19.55;51.29;101661.69;5068311;28;20791;-67
2021/11/06 05:39:42;;;;;;;1.60;0.80;;;;;;;19.55;51.28;101671.50;5082056;28;20044;-68
2021/11/06 05:42:09;;;;;;;0.77;0.77;;;;;;;19.56;51.25;101665.19;5071521;28;20049;-66
2021/11/06 05:44:36;;;;;;;1.00;0.80;;;;;;;19.57;51.15;101669.56;5071090;28;20652;-68
2021/11/06 05:47:04;;;;;;;0.60;0.60;;;;;;;19.57;51.32;101674.91;5075229;28;20055;-66
2021/11/06 05:49:31;;;;;;;1.88;0.70;;;;;;;19.57;51.32;101677.56;5070075;28;20075;-67
2021/11/06 05:51:58;;;;;;;0.65;0.65;;;;;;;19.56;51.39;101679.38;5073844;28;20064;-67
2021/11/06 05:54:26;;;;;;;1.63;0.70;;;;;;;19.56;51.28;101679.38;5065029;28;20048;-66
2021/11/06 05:56:53;;;;;;;1.00;0.63;;;;;;;19.57;51.20;101675.75;5065754;28;20524;-67
2021/11/06 05:59:21;;;;;;;1.00;0.70;;;;;;;19.57;51.28;101675.75;5074928;28;20057;-67
2021/11/06 06:01:48;;;;;;;1.45;0.90;;;;;;;19.56;51.26;101673.22;5077407;28;20052;-67
2021/11/06 06:04:15;;;;;;;0.80;0.60;;;;;;;19.57;51.13;101682.91;5071929;28;20063;-67
2021/11/06 06:06:42;;;;;;;1.38;0.82;;;;;;;19.57;51.19;101683.75;5076613;28;20048;-67
2021/11/06 06:09:10;;;;;;;1.00;0.80;;;;;;;19.58;51.63;101681.94;5075899;28;20207;-66
2021/11/06 06:11:37;;;;;;;1.10;0.88;;;;;;;19.57;51.13;101691.78;5057082;28;20056;-67
2021/11/06 06:14:04;;;;;;;1.02;0.80;;;;;;;19.59;51.16;101686.31;5076839;28;20059;-68
2021/11/06 06:16:31;;;;;;;0.77;0.60;;;;;;;19.58;51.17;101690.78;5072438;28;20052;-67
2021/11/06 06:18:58;;;;;;;0.75;0.60;;;;;;;19.58;51.13;101682.78;5073065;28;20056;-67
2021/11/06 06:21:25;;;;;;;0.82;0.68;;;;;;;19.58;51.24;101685.44;5076575;28;20059;-68
2021/11/06 06:23:52;;;;;;;0.90;0.70;;;;;;;19.58;51.10;101693.47;5067464;28;20055;-67
2021/11/06 06:26:20;;;;;;;1.30;0.60;;;;;;;19.59;51.25;101686.31;5075728;28;20139;-67
2021/11/06 06:28:47;;;;;;;0.82;0.70;;;;;;;19.59;51.31;101700.53;5066944;28;20058;-67
2021/11/06 06:31:15;;;;;;;0.93;0.70;;;;;;;19.60;51.08;101698.69;5075281;28;20048;-67
2021/11/06 06:33:42;;;;;;;1.15;0.70;;;;;;;19.59;51.13;101695.19;5074922;28;20052;-67
2021/11/06 06:36:10;;;;;;;1.25;0.80;;;;;;;19.59;51.34;101702.34;5070928;28;20681;-68
2021/11/06 06:38:37;;;;;;;0.93;0.70;;;;;;;19.59;51.33;101703.19;5077733;28;20046;-66
2021/11/06 06:41:04;;;;;;;0.85;0.60;;;;;;;19.60;51.54;101710.25;5072480;28;20075;-68
2021/11/06 06:43:32;;;;;;;0.93;0.80;;;;;;;19.60;51.30;101701.38;5079847;28;20052;-68
2021/11/06 06:46:00;;;;;;;0.65;0.50;;;;;;;19.60;51.31;101715.59;5078529;28;20059;-67
2021/11/06 06:48:27;;;;;;;0.70;0.63;;;;;;;19.59;51.30;101715.72;5075214;28;20044;-67
2021/11/06 06:50:54;;;;;;;1.00;0.70;;;;;;;19.61;51.17;101733.31;5064847;28;20071;-67
2021/11/06 06:53:22;;;;;;;1.13;0.60;;;;;;;19.61;51.24;101729.81;5071900;28;20061;-67
2021/11/06 06:55:49;;;;;;;0.75;0.55;;;;;;;19.61;51.26;101738.66;5064017;28;20040;-68
2021/11/06 06:58:17;;;;;;;0.82;0.68;;;;;;;19.61;51.25;101732.47;5070323;28;20513;-67
2021/11/06 07:00:44;;;;;;;0.60;0.55;;;;;;;19.62;51.37;101740.34;5069199;28;20048;-67
2021/11/06 07:03:11;;;;;;;0.55;0.55;;;;;;;19.61;51.23;101738.66;5066777;28;20045;-67
2021/11/06 07:05:38;;;;;;;0.70;0.60;;;;;;;19.62;51.07;101734.16;5078526;28;20052;-67
2021/11/06 07:08:06;;;;;;;0.93;0.70;;;;;;;19.61;51.09;101741.34;5079787;28;20040;-67
2021/11/06 07:10:34;;;;;;;0.55;0.50;;;;;;;19.61;51.18;101735.16;5059897;28;20045;-66
2021/11/06 07:13:02;;;;;;;0.85;0.70;;;;;;;19.62;51.08;101737.69;5080329;28;20062;-67
2021/11/06 07:15:29;;;;;;;0.73;0.70;;;;;;;19.63;51.10;101739.41;5065104;28;20442;-69
2021/11/06 07:17:56;;;;;;;0.70;0.65;;;;;;;19.63;51.06;101742.09;5054731;28;20059;-66
2021/11/06 07:20:23;;;;;;;0.70;0.60;;;;;;;19.64;51.30;101743.78;5069739;28;20051;-67
2021/11/06 07:22:51;;;;;;;0.98;0.50;;;;;;;19.65;51.13;101744.63;5076363;28;20044;-67
2021/11/06 07:25:18;;;;;;;0.80;0.63;;;;;;;19.64;51.13;101751.78;5071501;28;20052;-66
2021/11/06 07:27:45;;;;;;;0.93;0.68;;;;;;;19.64;51.02;101738.44;5076359;28;20092;-67
2021/11/06 07:30:12;;;;;;;0.90;0.60;;;;;;;19.65;51.29;101747.28;5067470;28;20052;-67
2021/11/06 07:32:39;;;;;;;1.08;0.77;;;;;;;19.65;51.19;101742.81;5073212;28;20072;-66
2021/11/06 07:35:06;;;;;;;1.00;0.80;;;;;;;19.65;51.14;101750.81;5077459;28;20049;-67
2021/11/06 07:37:36;;;;;;;0.98;0.77;;;;;;;19.66;51.00;101751.66;5072198;28;20051;-67
2021/11/06 07:40:08;;;;;;;1.05;0.80;;;;;;;19.65;51.14;101753.47;5071942;28;20504;-66
2021/11/06 07:42:39;;;;;;;0.93;0.60;;;;;;;19.66;51.06;101752.50;5060170;28;20070;-66
2021/11/06 07:45:09;;;;;;;1.00;0.80;;;;;;;19.65;51.18;101753.47;5055205;28;20078;-68
2021/11/06 07:47:37;;;;;;;0.82;0.80;;;;;;;19.66;51.08;101755.19;5079712;28;20048;-67
2021/11/06 07:50:05;;;;;;;1.27;0.70;;;;;;;19.66;51.08;101746.31;5067920;28;20527;-67
2021/11/06 07:52:32;;;;;;;0.68;0.60;;;;;;;19.66;51.14;101759.69;5067241;28;20124;-66
2021/11/06 07:54:59;;;;;;;0.70;0.70;;;;;;;19.66;51.11;101755.19;5065503;28;20127;-67
2021/11/06 07:57:27;;;;;;;1.45;0.77;;;;;;;19.66;51.05;101752.50;5083053;28;20479;-68
2021/11/06 07:59:57;;;;;;;1.20;0.80;;;;;;;19.65;50.97;101756.16;5071305;28;20134;-67
2021/11/06 08:02:24;;;;;;;0.80;0.75;;;;;;;19.66;51.04;101747.16;5071622;28;20256;-66
2021/11/06 08:04:51;;;;;;;0.82;0.70;;;;;;;19.67;51.07;101756.03;5076873;28;20526;-67
2021/11/06 08:07:18;;;;;;;0.73;0.73;;;;;;;19.67;51.16;101740.84;5073657;28;20058;-67
2021/11/06 08:09:45;;;;;;;1.13;0.90;;;;;;;19.67;51.13;101746.19;5079910;28;20403;-66
2021/11/06 08:12:13;;;;;;;0.70;0.70;;;;;;;19.68;50.98;101752.41;5072018;28;20058;-66
2021/11/06 08:14:40;;;;;;;0.82;0.60;;;;;;;19.67;51.00;101756.88;5075626;28;20056;-66
2021/11/06 08:17:07;;;;;;;0.95;0.73;;;;;;;19.67;50.91;101756.88;5074227;28;20503;-67
2021/11/06 08:19:34;;;;;;;1.15;0.60;;;;;;;19.69;50.94;101754.09;5076299;28;20051;-68
2021/11/06 08:22:01;;;;;;;0.63;0.60;;;;;;;19.67;51.02;101751.53;5080855;28;20480;-68
2021/11/06 08:24:28;;;;;;;1.10;0.77;;;;;;;19.67;51.06;101754.19;5069548;28;20056;-67
2021/11/06 08:26:56;;;;;;;0.93;0.70;;;;;;;19.68;50.88;101755.91;5074618;28;20072;-67
2021/11/06 08:29:23;;;;;;;1.25;0.85;;;;;;;19.69;51.05;101760.28;5071165;28;20079;-67
2021/11/06 08:31:50;;;;;;;0.52;0.50;;;;;;;19.71;51.07;101762.81;5070285;28;20476;-67
2021/11/06 08:34:17;;;;;;;0.50;0.50;;;;;;;19.71;51.11;101763.66;5077384;28;20048;-67
2021/11/06 08:36:44;;;;;;;0.80;0.70;;;;;;;19.72;50.94;101764.53;5082660;28;20052;-66
2021/11/06 08:39:14;;;;;;;0.73;0.65;;;;;;;19.74;50.97;101765.25;5082140;28;20048;-67
2021/11/06 08:41:41;;;;;;;0.70;0.60;;;;;;;19.72;50.82;101760.06;5073930;28;20053;-66
2021/11/06 08:44:08;;;;;;;1.10;0.52;;;;;;;19.72;51.14;101762.72;5073611;28;20656;-66
2021/11/06 08:46:36;;;;;;;1.30;0.60;;;;;;;19.73;50.99;101766.25;5080171;28;20056;-67
2021/11/06 08:49:03;;;;;;;0.57;0.50;;;;;;;19.73;50.93;101768.91;5077591;28;20069;-66
2021/11/06 08:51:30;;;;;;;0.63;0.60;;;;;;;19.72;51.01;101773.41;5075634;28;20070;-68
2021/11/06 08:53:58;;;;;;;0.52;0.50;;;;;;;19.73;50.98;101777.78;5075869;28;20411;-66
2021/11/06 08:56:28;;;;;;;0.93;0.70;;;;;;;19.73;51.05;101769.75;5075541;28;20052;-66
2021/11/06 08:58:56;;;;;;;2.25;0.43;;;;;;;19.73;50.97;101772.44;5082743;28;20040;-66
2021/11/06 09:01:24;;;;;;;0.63;0.57;;;;;;;19.73;50.94;101772.44;5064134;28;20143;-68
2021/11/06 09:03:55;;;;;;;0.75;0.60;;;;;;;19.73;50.93;101767.09;5077599;28;20074;-67
2021/11/06 09:06:23;;;;;;;0.90;0.70;;;;;;;19.74;50.94;101767.94;5074446;28;20056;-66
2021/11/06 09:08:50;;;;;;;0.73;0.55;;;;;;;19.75;51.13;101774.13;5082964;28;20059;-67
2021/11/06 09:11:19;;;;;;;0.70;0.60;;;;;;;19.74;50.88;101767.94;5070758;28;20080;-67
2021/11/06 09:13:53;;;;;;;1.00;0.60;;;;;;;19.73;50.86;101767.09;5076967;28;20048;-67
2021/11/06 09:16:21;;;;;;;0.70;0.60;;;;;;;19.74;50.91;101767.94;5071459;28;20048;-67
2021/11/06 09:18:49;;;;;;;0.77;0.60;;;;;;;19.75;51.19;101772.31;5066307;28;20059;-67
2021/11/06 09:21:19;;;;;;;1.42;0.73;;;;;;;19.76;50.91;101773.16;5082975;28;20044;-67
2021/11/06 09:23:50;;;;;;;0.80;0.60;;;;;;;19.75;51.13;101774.97;5068460;28;20044;-66
2021/11/06 09:26:19;;;;;;;1.08;0.70;;;;;;;19.76;50.94;101773.16;5073369;28;20067;-68
2021/11/06 09:28:47;;;;;;;0.73;0.70;;;;;;;19.76;51.12;101770.47;5079405;28;20383;-67
2021/11/06 09:31:16;;;;;;;0.70;0.68;;;;;;;19.77;50.75;101766.81;5072534;28;20516;-68
2021/11/06 09:33:44;;;;;;;0.95;0.70;;;;;;;19.77;50.90;101761.47;5074844;28;20503;-67
2021/11/06 09:36:12;;;;;;;1.48;0.73;;;;;;;19.77;50.92;101759.69;5080605;28;20075;-68
2021/11/06 09:38:40;;;;;;;0.93;0.68;;;;;;;19.79;50.94;101762.22;5077539;28;20058;-68
2021/11/06 09:41:09;;;;;;;0.63;0.60;;;;;;;19.79;50.93;101760.41;5074378;28;20063;-68
2021/11/06 09:43:38;;;;;;;0.73;0.57;;;;;;;19.80;50.82;101771.94;5077430;28;20871;-68
2021/11/06 09:46:08;;;;;;;0.60;0.60;;;;;;;19.81;50.79;101776.28;5071270;28;20418;-68
2021/11/06 09:48:38;;;;;;;0.65;0.57;;;;;;;19.81;50.81;101774.47;5075866;28;20519;-67
2021/11/06 09:51:05;;;;;;;0.90;0.70;;;;;;;19.81;51.00;101766.47;5066607;28;20051;-68
2021/11/06 09:53:39;;;;;;;0.90;0.65;;;;;;;19.82;50.77;101765.50;5070318;28;20074;-68
2021/11/06 09:56:10;;;;;;;1.15;0.80;;;;;;;19.82;50.95;101762.84;5069678;28;20052;-68
2021/11/06 09:58:37;;;;;;;1.00;0.70;;;;;;;19.82;50.79;101768.19;5080990;28;20056;-67
2021/11/06 10:01:05;;;;;;;0.52;0.52;;;;;;;19.82;50.85;101765.50;5074801;28;20055;-68
2021/11/06 10:03:33;;;;;;;0.60;0.57;;;;;;;19.83;50.80;101761.00;5079555;28;20058;-67
2021/11/06 10:06:02;;;;;;;1.10;0.70;;;;;;;19.84;51.05;101757.34;5071844;28;20130;-68
2021/11/06 10:08:36;;;;;;;1.15;0.80;;;;;;;19.84;50.86;101758.19;5062039;28;20135;-66
2021/11/06 10:11:09;;;;;;;0.68;0.52;;;;;;;19.84;50.97;101763.56;5068088;28;20088;-67
2021/11/06 10:13:56;;;;;;;1.85;0.80;;;;;;;19.85;50.62;101751.88;5076949;28;20052;-67
2021/11/06 10:16:36;;;;;;;0.52;0.52;;;;;;;19.85;50.62;101754.56;5066933;28;20061;-69
2021/11/06 10:19:10;;;;;;;0.70;0.60;;;;;;;19.86;50.96;101760.78;5065836;28;20052;-68
2021/11/06 10:21:40;;;;;;;1.97;0.60;;;;;;;19.85;50.72;101751.88;5076984;28;20041;-68
2021/11/06 10:24:08;;;;;;;1.50;0.80;;;;;;;19.86;50.91;101758.09;5070499;28;21047;-68
2021/11/06 10:26:35;;;;;;;1.20;0.60;;;;;;;19.86;50.60;101750.09;5076570;28;20048;-68
2021/11/06 10:29:09;;;;;;;0.70;0.60;;;;;;;19.85;50.71;101757.22;5056865;28;20052;-68
2021/11/06 10:31:54;;;;;;;1.00;0.73;;;;;;;19.86;50.63;101750.09;5072990;28;20048;-67
2021/11/06 10:34:22;;;;;;;0.45;0.45;;;;;;;19.86;50.86;101747.41;5078272;28;20061;-69
2021/11/06 10:37:00;;;;;;;1.00;0.77;;;;;;;19.86;50.75;101747.41;5076069;28;20147;-68
2021/11/06 10:39:27;;;;;;;0.85;0.75;;;;;;;19.88;50.79;101748.13;5068446;28;20047;-68
2021/11/06 10:42:12;;;;;;;0.70;0.60;;;;;;;19.88;50.80;101748.97;5069602;28;20067;-68
2021/11/06 10:44:40;;;;;;;0.55;0.40;;;;;;;19.88;50.66;101748.13;5062391;28;20066;-68
2021/11/06 10:47:08;;;;;;;0.88;0.60;;;;;;;19.89;50.76;101747.16;5079949;28;20064;-68
2021/11/06 10:49:42;;;;;;;0.40;0.40;;;;;;;19.89;50.75;101745.31;5066387;28;20049;-68
2021/11/06 10:52:14;;;;;;;0.93;0.60;;;;;;;19.90;50.71;101743.50;5062702;28;20062;-67
2021/11/06 10:55:04;;;;;;;0.73;0.60;;;;;;;19.90;50.50;101733.69;5058912;28;20455;-68
2021/11/06 10:57:32;;;;;;;0.70;0.60;;;;;;;19.90;50.54;101736.34;5072475;28;20464;-68
2021/11/06 11:00:26;;;;;;;0.50;0.50;;;;;;;19.91;50.76;101734.53;5080553;28;20148;-67
2021/11/06 11:02:53;;;;;;;0.80;0.60;;;;;;;19.90;50.75;101730.13;5066945;28;20045;-67
2021/11/06 11:05:46;;;;;;;0.68;0.40;;;;;;;19.91;50.80;101726.50;5078821;28;20052;-67
2021/11/06 11:08:13;;;;;;;0.80;0.52;;;;;;;19.90;50.61;101724.78;5075088;28;20052;-68
2021/11/06 11:10:42;;;;;;;0.82;0.60;;;;;;;19.91;50.81;101726.50;5064584;28;20054;-67
2021/11/06 11:13:10;;;;;;;0.68;0.50;;;;;;;19.91;50.59;101716.66;5080087;28;20060;-67
2021/11/06 11:15:39;;;;;;;0.57;0.45;;;;;;;19.91;50.66;101718.50;5064767;28;20057;-67
2021/11/06 11:18:06;;;;;;;0.60;0.60;;;;;;;19.91;50.64;101723.84;5079096;28;20078;-67
2021/11/06 11:20:39;;;;;;;0.70;0.52;;;;;;;19.90;50.73;101724.78;5063355;28;20049;-67
2021/11/06 11:23:13;;;;;;;0.52;0.47;;;;;;;19.89;50.81;101713.25;5061098;28;20557;-67
2021/11/06 11:25:43;;;;;;;0.60;0.60;;;;;;;19.88;50.91;101714.22;5072499;28;20050;-67
2021/11/06 11:28:11;;;;;;;0.70;0.60;;;;;;;19.89;50.81;101713.25;5081700;28;20545;-67
2021/11/06 11:30:40;;;;;;;0.50;0.50;;;;;;;19.89;50.66;101713.25;5075060;28;20043;-67